Great Reward — VRFZ6 — position and weather

sailwx.info

Track history (hours):
 
Tides and Currents Weather Stations Pressure Air Temp Water Temp Dewpoint Dewpoint Depression Visibility Wind Speed Wind Dir Waves Ship Positions

Great Reward

Last reported at 2018-May-08 15:32 UTC. Time now 2018-May-28 01:28 UTC.
Position S 40°07' E 173°08'.
Warning: this ship's position is 19 days out of date.

Length 178 m; draft 8.8 m.

Type: Cargo ship. MMSI: 338097928.

Date/timePositionNaut miles runAvg speedWind from/ knotsBaromVisibWave heightAir tempDewpointWater temp
2018-May-08 15:32S 40°07' E 173°08'2 8.6
2018-May-08 15:20S 40°08' E 173°10'3 8.6
2018-May-08 15:00S 40°09' E 173°13'11 9.0
2018-May-08 13:49S 40°16' E 173°24'3 9.4
2018-May-08 13:28S 40°18' E 173°27'4 9.5
2018-May-08 13:00S 40°20' E 173°32'5 9.2
2018-May-08 12:30S 40°23' E 173°37'4 8.7
2018-May-08 12:00S 40°26' E 173°42'5 9.0
2018-May-08 11:29S 40°29' E 173°46'4 8.9
2018-May-08 11:00S 40°31' E 173°51'5 9.0
2018-May-08 10:30S 40°34' E 173°56'4 8.7
2018-May-08 10:00S 40°36' E 174°00'4 8.6
2018-May-08 09:30S 40°39' E 174°05'4 8.8
2018-May-08 09:00S 40°43' E 174°08'5 9.2
2018-May-08 08:30S 40°47' E 174°12'5 9.5
2018-May-08 08:00S 40°51' E 174°15'5 9.3
2018-May-08 07:30S 40°54' E 174°18'5 9.2
2018-May-08 06:59S 40°58' E 174°22'4 8.6
2018-May-08 06:30S 41°02' E 174°21'4 8.9
2018-May-08 06:00S 41°06' E 174°17'4 7.1
2018-May-08 05:30S 41°09' E 174°14'5 9.5
2018-May-08 05:00S 41°12' E 174°11'510.1
2018-May-08 04:30S 41°14' E 174°05'4 7.9
2018-May-08 03:59S 41°17' E 173°60'0 0.1
2018-May-08 03:29S 41°17' E 173°60'0 0.0
2018-May-08 02:59S 41°17' E 173°60'0 0.0
2018-May-08 02:29S 41°17' E 173°60'0 0.0
2018-May-08 01:59S 41°17' E 173°60'0 0.0
2018-May-08 01:29S 41°17' E 173°60'0 0.0
2018-May-08 00:59S 41°17' E 173°60'0 0.0
2018-May-08 00:29S 41°17' E 173°60'0 0.0
2018-May-07 23:59S 41°17' E 173°60'0 0.0
2018-May-07 23:29S 41°17' E 173°60'0 0.0
2018-May-07 22:59S 41°17' E 173°60'0 0.0
2018-May-07 22:29S 41°17' E 173°60'0 0.0
2018-May-07 21:59S 41°17' E 173°60'0 0.0
2018-May-07 21:29S 41°17' E 173°60'0 0.0
2018-May-07 20:59S 41°17' E 173°60'0 0.0
2018-May-07 20:29S 41°17' E 173°60'0 0.0
2018-May-07 19:59S 41°17' E 173°60'0 0.0
2018-May-07 19:29S 41°17' E 173°60'0 0.0
2018-May-07 18:59S 41°17' E 173°60'0 0.0
2018-May-07 18:29S 41°17' E 173°60'0 0.0
2018-May-07 17:59S 41°17' E 173°60'0 0.0
2018-May-07 17:29S 41°17' E 173°60'0 0.0
2018-May-07 16:59S 41°17' E 173°60'0 0.0
2018-May-07 16:29S 41°17' E 173°60'0 0.0
2018-May-07 15:59S 41°17' E 173°60'0 0.0
2018-May-07 15:29S 41°17' E 173°60'0 0.0
2018-May-07 14:59S 41°17' E 173°60'0 0.0
2018-May-07 14:29S 41°17' E 173°60'0 0.0
2018-May-07 13:59S 41°17' E 173°60'0 0.0
2018-May-07 13:29S 41°17' E 173°60'0 0.0
2018-May-07 12:59S 41°17' E 173°60'0 0.0
2018-May-07 12:29S 41°17' E 173°60'0 0.0
2018-May-07 11:59S 41°17' E 173°60'0 0.0
2018-May-07 11:29S 41°17' E 173°60'0 0.0
2018-May-07 10:59S 41°17' E 173°60'0 0.0
2018-May-07 10:29S 41°17' E 173°60'0 0.0
2018-May-07 09:59S 41°17' E 173°60'0 0.0
2018-May-07 09:29S 41°17' E 173°60'0 0.0
2018-May-07 08:59S 41°17' E 173°60'0 0.0
2018-May-07 08:29S 41°17' E 173°60'0 0.0
2018-May-07 07:59S 41°17' E 173°60'0 0.0
2018-May-07 07:29S 41°17' E 173°60'0 0.0
2018-May-07 06:59S 41°17' E 173°60'0 0.0
2018-May-07 06:29S 41°17' E 173°60'0 0.0
2018-May-07 05:59S 41°17' E 173°60'0 0.0
2018-May-07 05:29S 41°17' E 173°60'0 0.0
2018-May-07 04:59S 41°17' E 173°60'0 0.0
2018-May-07 04:29S 41°17' E 173°60'0 0.0
2018-May-07 03:59S 41°17' E 173°60'0 0.0
2018-May-07 03:29S 41°17' E 173°60'0 0.0
2018-May-07 02:59S 41°17' E 173°60'0 0.0
2018-May-07 02:29S 41°17' E 173°60'0 0.0
2018-May-07 01:59S 41°17' E 173°60'0 0.0
2018-May-07 01:29S 41°17' E 173°60'0 0.0
2018-May-07 00:59S 41°17' E 173°60'0 0.0
2018-May-07 00:29S 41°17' E 173°60'0 0.0
2018-May-06 23:59S 41°17' E 173°60'0 0.0
2018-May-06 23:29S 41°17' E 173°60'0 0.0
2018-May-06 22:59S 41°17' E 173°60'0 0.0
2018-May-06 22:29S 41°17' E 173°60'0 0.0
2018-May-06 21:59S 41°17' E 173°60'0 0.0
2018-May-06 21:29S 41°17' E 173°60'0 0.0
2018-May-06 20:59S 41°17' E 173°60'0 0.0
2018-May-06 20:29S 41°17' E 173°60'0 0.0
2018-May-06 19:59S 41°17' E 173°60'0 0.0
2018-May-06 19:29S 41°17' E 173°60'0 0.0
2018-May-06 18:59S 41°17' E 173°60'0 0.0
2018-May-06 18:29S 41°17' E 173°60'0 0.0
2018-May-06 17:59S 41°17' E 173°60'0 0.0
2018-May-06 17:29S 41°17' E 173°60'0 0.0
2018-May-06 16:59S 41°17' E 173°60'0 0.0
2018-May-06 16:29S 41°17' E 173°60'0 0.0
2018-May-06 15:59S 41°17' E 173°60'0 0.0
2018-May-06 15:29S 41°17' E 173°60'0 0.0
2018-May-06 14:59S 41°17' E 173°60'0 0.0
2018-May-06 14:29S 41°17' E 173°60'0 0.0
2018-May-06 13:59S 41°17' E 173°60'0 0.0
2018-May-06 13:29S 41°17' E 173°60'0 0.0
2018-May-06 12:59S 41°17' E 173°60'0 0.0
2018-May-06 12:29S 41°17' E 173°60'0 0.0
2018-May-06 11:59S 41°17' E 173°60'0 0.0
2018-May-06 11:29S 41°17' E 173°60'0 0.0
2018-May-06 10:59S 41°17' E 173°60'0 0.0
2018-May-06 10:29S 41°17' E 173°60'0 0.0
2018-May-06 09:59S 41°17' E 173°60'0 0.0
2018-May-06 09:29S 41°17' E 173°60'0 0.0
2018-May-06 08:59S 41°17' E 173°60'0 0.0
2018-May-06 08:29S 41°17' E 173°60'0 0.0
2018-May-06 08:00S 41°17' E 173°60'0 0.9
2018-May-06 07:30S 41°16' E 174°00'1 2.3
2018-May-06 07:01S 41°15' E 174°01'4 7.6
2018-May-06 06:30S 41°14' E 174°06'510.5
2018-May-06 06:01S 41°11' E 174°12'611.1
2018-May-06 05:30S 41°07' E 174°16'4 8.8
2018-May-06 05:01S 41°03' E 174°20'4 7.6
2018-May-06 04:31S 40°60' E 174°22'5 9.5
2018-May-06 04:01S 40°56' E 174°20'611.9
2018-May-06 03:30S 40°51' E 174°15'611.7
2018-May-06 03:01S 40°46' E 174°10'611.7
2018-May-06 02:30S 40°42' E 174°06'510.7
2018-May-06 02:00S 40°38' E 174°00'510.7
2018-May-06 01:31S 40°40' E 173°54'710.2
2018-May-06 00:48S 40°45' E 173°47'310.2
2018-May-06 00:30S 40°47' E 173°44'510.3
2018-May-06 00:00S 40°51' E 173°40'510.4
2018-May-05 23:30S 40°55' E 173°35'510.5
2018-May-05 23:00S 40°59' E 173°31'710.7
2018-May-05 22:23S 41°04' E 173°25'  
2018-May-03 10:19S 41°06' E 173°14'3 8.8
2018-May-03 10:00S 41°03' E 173°14'611.1
2018-May-03 09:31S 40°58' E 173°15'612.0
2018-May-03 09:01S 40°52' E 173°15'612.0
2018-May-03 08:30S 40°46' E 173°14'612.2
2018-May-03 08:00S 40°39' E 173°14'612.4
2018-May-03 07:31S 40°33' E 173°13'612.1
2018-May-03 07:00S 40°27' E 173°12'612.1
2018-May-03 06:31S 40°22' E 173°10'711.9
2018-May-03 05:58S 40°15' E 173°07'611.8
2018-May-03 05:29S 40°10' E 173°06'611.4
2018-May-03 05:00S 40°04' E 173°04'  
Track history (hours):
 
Tides and Currents Weather Stations Pressure Air Temp Water Temp Dewpoint Dewpoint Depression Visibility Wind Speed Wind Dir Waves Ship Positions

Great Reward

Last reported at 2018-May-08 15:32 UTC. Time now 2018-May-28 01:28 UTC.
Position S 40°07' E 173°08'.
Warning: this ship's position is 19 days out of date.

Length 178 m; draft 8.8 m.

Type: Cargo ship. MMSI: 338097928.

Date/timePositionNaut miles runAvg speedWind from/ knotsBaromVisibWave heightAir tempDewpointWater temp
2018-May-08 15:32S 40°07' E 173°08'2 8.6
2018-May-08 15:20S 40°08' E 173°10'3 8.6
2018-May-08 15:00S 40°09' E 173°13'11 9.0
2018-May-08 13:49S 40°16' E 173°24'3 9.4
2018-May-08 13:28S 40°18' E 173°27'4 9.5
2018-May-08 13:00S 40°20' E 173°32'5 9.2
2018-May-08 12:30S 40°23' E 173°37'4 8.7
2018-May-08 12:00S 40°26' E 173°42'5 9.0
2018-May-08 11:29S 40°29' E 173°46'4 8.9
2018-May-08 11:00S 40°31' E 173°51'5 9.0
2018-May-08 10:30S 40°34' E 173°56'4 8.7
2018-May-08 10:00S 40°36' E 174°00'4 8.6
2018-May-08 09:30S 40°39' E 174°05'4 8.8
2018-May-08 09:00S 40°43' E 174°08'5 9.2
2018-May-08 08:30S 40°47' E 174°12'5 9.5
2018-May-08 08:00S 40°51' E 174°15'5 9.3
2018-May-08 07:30S 40°54' E 174°18'5 9.2
2018-May-08 06:59S 40°58' E 174°22'4 8.6
2018-May-08 06:30S 41°02' E 174°21'4 8.9
2018-May-08 06:00S 41°06' E 174°17'4 7.1
2018-May-08 05:30S 41°09' E 174°14'5 9.5
2018-May-08 05:00S 41°12' E 174°11'510.1
2018-May-08 04:30S 41°14' E 174°05'4 7.9
2018-May-08 03:59S 41°17' E 173°60'0 0.1
2018-May-08 03:29S 41°17' E 173°60'0 0.0
2018-May-08 02:59S 41°17' E 173°60'0 0.0
2018-May-08 02:29S 41°17' E 173°60'0 0.0
2018-May-08 01:59S 41°17' E 173°60'0 0.0
2018-May-08 01:29S 41°17' E 173°60'0 0.0
2018-May-08 00:59S 41°17' E 173°60'0 0.0
2018-May-08 00:29S 41°17' E 173°60'0 0.0
2018-May-07 23:59S 41°17' E 173°60'0 0.0
2018-May-07 23:29S 41°17' E 173°60'0 0.0
2018-May-07 22:59S 41°17' E 173°60'0 0.0
2018-May-07 22:29S 41°17' E 173°60'0 0.0
2018-May-07 21:59S 41°17' E 173°60'0 0.0
2018-May-07 21:29S 41°17' E 173°60'0 0.0
2018-May-07 20:59S 41°17' E 173°60'0 0.0
2018-May-07 20:29S 41°17' E 173°60'0 0.0
2018-May-07 19:59S 41°17' E 173°60'0 0.0
2018-May-07 19:29S 41°17' E 173°60'0 0.0
2018-May-07 18:59S 41°17' E 173°60'0 0.0
2018-May-07 18:29S 41°17' E 173°60'0 0.0
2018-May-07 17:59S 41°17' E 173°60'0 0.0
2018-May-07 17:29S 41°17' E 173°60'0 0.0
2018-May-07 16:59S 41°17' E 173°60'0 0.0
2018-May-07 16:29S 41°17' E 173°60'0 0.0
2018-May-07 15:59S 41°17' E 173°60'0 0.0
2018-May-07 15:29S 41°17' E 173°60'0 0.0
2018-May-07 14:59S 41°17' E 173°60'0 0.0
2018-May-07 14:29S 41°17' E 173°60'0 0.0
2018-May-07 13:59S 41°17' E 173°60'0 0.0
2018-May-07 13:29S 41°17' E 173°60'0 0.0
2018-May-07 12:59S 41°17' E 173°60'0 0.0
2018-May-07 12:29S 41°17' E 173°60'0 0.0
2018-May-07 11:59S 41°17' E 173°60'0 0.0
2018-May-07 11:29S 41°17' E 173°60'0 0.0
2018-May-07 10:59S 41°17' E 173°60'0 0.0
2018-May-07 10:29S 41°17' E 173°60'0 0.0
2018-May-07 09:59S 41°17' E 173°60'0 0.0
2018-May-07 09:29S 41°17' E 173°60'0 0.0
2018-May-07 08:59S 41°17' E 173°60'0 0.0
2018-May-07 08:29S 41°17' E 173°60'0 0.0
2018-May-07 07:59S 41°17' E 173°60'0 0.0
2018-May-07 07:29S 41°17' E 173°60'0 0.0
2018-May-07 06:59S 41°17' E 173°60'0 0.0
2018-May-07 06:29S 41°17' E 173°60'0 0.0
2018-May-07 05:59S 41°17' E 173°60'0 0.0
2018-May-07 05:29S 41°17' E 173°60'0 0.0
2018-May-07 04:59S 41°17' E 173°60'0 0.0
2018-May-07 04:29S 41°17' E 173°60'0 0.0
2018-May-07 03:59S 41°17' E 173°60'0 0.0
2018-May-07 03:29S 41°17' E 173°60'0 0.0
2018-May-07 02:59S 41°17' E 173°60'0 0.0
2018-May-07 02:29S 41°17' E 173°60'0 0.0
2018-May-07 01:59S 41°17' E 173°60'0 0.0
2018-May-07 01:29S 41°17' E 173°60'0 0.0
2018-May-07 00:59S 41°17' E 173°60'0 0.0
2018-May-07 00:29S 41°17' E 173°60'0 0.0
2018-May-06 23:59S 41°17' E 173°60'0 0.0
2018-May-06 23:29S 41°17' E 173°60'0 0.0
2018-May-06 22:59S 41°17' E 173°60'0 0.0
2018-May-06 22:29S 41°17' E 173°60'0 0.0
2018-May-06 21:59S 41°17' E 173°60'0 0.0
2018-May-06 21:29S 41°17' E 173°60'0 0.0
2018-May-06 20:59S 41°17' E 173°60'0 0.0
2018-May-06 20:29S 41°17' E 173°60'0 0.0
2018-May-06 19:59S 41°17' E 173°60'0 0.0
2018-May-06 19:29S 41°17' E 173°60'0 0.0
2018-May-06 18:59S 41°17' E 173°60'0 0.0
2018-May-06 18:29S 41°17' E 173°60'0 0.0
2018-May-06 17:59S 41°17' E 173°60'0 0.0
2018-May-06 17:29S 41°17' E 173°60'0 0.0
2018-May-06 16:59S 41°17' E 173°60'0 0.0
2018-May-06 16:29S 41°17' E 173°60'0 0.0
2018-May-06 15:59S 41°17' E 173°60'0 0.0
2018-May-06 15:29S 41°17' E 173°60'0 0.0
2018-May-06 14:59S 41°17' E 173°60'0 0.0
2018-May-06 14:29S 41°17' E 173°60'0 0.0
2018-May-06 13:59S 41°17' E 173°60'0 0.0
2018-May-06 13:29S 41°17' E 173°60'0 0.0
2018-May-06 12:59S 41°17' E 173°60'0 0.0
2018-May-06 12:29S 41°17' E 173°60'0 0.0
2018-May-06 11:59S 41°17' E 173°60'0 0.0
2018-May-06 11:29S 41°17' E 173°60'0 0.0
2018-May-06 10:59S 41°17' E 173°60'0 0.0
2018-May-06 10:29S 41°17' E 173°60'0 0.0
2018-May-06 09:59S 41°17' E 173°60'0 0.0
2018-May-06 09:29S 41°17' E 173°60'0 0.0
2018-May-06 08:59S 41°17' E 173°60'0 0.0
2018-May-06 08:29S 41°17' E 173°60'0 0.0
2018-May-06 08:00S 41°17' E 173°60'0 0.9
2018-May-06 07:30S 41°16' E 174°00'1 2.3
2018-May-06 07:01S 41°15' E 174°01'4 7.6
2018-May-06 06:30S 41°14' E 174°06'510.5
2018-May-06 06:01S 41°11' E 174°12'611.1
2018-May-06 05:30S 41°07' E 174°16'4 8.8
2018-May-06 05:01S 41°03' E 174°20'4 7.6
2018-May-06 04:31S 40°60' E 174°22'5 9.5
2018-May-06 04:01S 40°56' E 174°20'611.9
2018-May-06 03:30S 40°51' E 174°15'611.7
2018-May-06 03:01S 40°46' E 174°10'611.7
2018-May-06 02:30S 40°42' E 174°06'510.7
2018-May-06 02:00S 40°38' E 174°00'510.7
2018-May-06 01:31S 40°40' E 173°54'710.2
2018-May-06 00:48S 40°45' E 173°47'310.2
2018-May-06 00:30S 40°47' E 173°44'510.3
2018-May-06 00:00S 40°51' E 173°40'510.4
2018-May-05 23:30S 40°55' E 173°35'510.5
2018-May-05 23:00S 40°59' E 173°31'710.7
2018-May-05 22:23S 41°04' E 173°25'  
2018-May-03 10:19S 41°06' E 173°14'3 8.8
2018-May-03 10:00S 41°03' E 173°14'611.1
2018-May-03 09:31S 40°58' E 173°15'612.0
2018-May-03 09:01S 40°52' E 173°15'612.0
2018-May-03 08:30S 40°46' E 173°14'612.2
2018-May-03 08:00S 40°39' E 173°14'612.4
2018-May-03 07:31S 40°33' E 173°13'612.1
2018-May-03 07:00S 40°27' E 173°12'612.1
2018-May-03 06:31S 40°22' E 173°10'711.9
2018-May-03 05:58S 40°15' E 173°07'611.8
2018-May-03 05:29S 40°10' E 173°06'611.4
2018-May-03 05:00S 40°04' E 173°04'  

Dump ship's entire track history